sensor_id;sensor_type;location;lat;lon;timestamp;pressure;altitude;pressure_sealevel;temperature;humidity
13869;BME280;7004;48.206;16.402;2023-05-09T00:00:22;100484.13;;;11.28;56.99
13869;BME280;7004;48.206;16.402;2023-05-09T00:02:48;100484.13;;;11.28;57.09
13869;BME280;7004;48.206;16.402;2023-05-09T00:05:14;100480.66;;;11.59;56.84
13869;BME280;7004;48.206;16.402;2023-05-09T00:07:40;100482.44;;;11.27;57.41
13869;BME280;7004;48.206;16.402;2023-05-09T00:10:07;100478.91;;;11.10;56.92
13869;BME280;7004;48.206;16.402;2023-05-09T00:12:33;100478.41;;;11.20;57.40
13869;BME280;7004;48.206;16.402;2023-05-09T00:14:59;100476.03;;;10.82;58.80
13869;BME280;7004;48.206;16.402;2023-05-09T00:17:25;100474.94;;;11.02;58.51
13869;BME280;7004;48.206;16.402;2023-05-09T00:19:53;100471.22;;;11.06;58.13
13869;BME280;7004;48.206;16.402;2023-05-09T00:22:20;100471.28;;;11.04;57.89
13869;BME280;7004;48.206;16.402;2023-05-09T00:24:47;100469.34;;;10.75;59.02
13869;BME280;7004;48.206;16.402;2023-05-09T00:27:14;100469.63;;;10.86;59.42
13869;BME280;7004;48.206;16.402;2023-05-09T00:29:42;100470.03;;;10.78;58.99
13869;BME280;7004;48.206;16.402;2023-05-09T00:32:08;100460.94;;;11.00;58.46
13869;BME280;7004;48.206;16.402;2023-05-09T00:34:35;100453.75;;;10.86;58.61
13869;BME280;7004;48.206;16.402;2023-05-09T00:37:01;100454.81;;;10.99;58.69
13869;BME280;7004;48.206;16.402;2023-05-09T00:39:28;100454.19;;;10.94;59.15
13869;BME280;7004;48.206;16.402;2023-05-09T00:41:57;100449.00;;;10.92;59.18
13869;BME280;7004;48.206;16.402;2023-05-09T00:44:23;100456.53;;;11.00;58.45
13869;BME280;7004;48.206;16.402;2023-05-09T00:46:49;100456.56;;;10.83;60.03
13869;BME280;7004;48.206;16.402;2023-05-09T00:49:15;100451.97;;;10.86;59.33
13869;BME280;7004;48.206;16.402;2023-05-09T00:51:41;100448.44;;;11.03;58.73
13869;BME280;7004;48.206;16.402;2023-05-09T00:54:08;100448.84;;;11.11;59.34
13869;BME280;7004;48.206;16.402;2023-05-09T00:56:34;100457.50;;;10.82;59.10
13869;BME280;7004;48.206;16.402;2023-05-09T00:59:00;100449.53;;;11.15;58.51
13869;BME280;7004;48.206;16.402;2023-05-09T01:01:26;100449.00;;;10.92;58.88
13869;BME280;7004;48.206;16.402;2023-05-09T01:03:53;100441.31;;;10.88;59.85
13869;BME280;7004;48.206;16.402;2023-05-09T01:18:07;100428.41;;;10.82;60.13
13869;BME280;7004;48.206;16.402;2023-05-09T01:20:46;100429.97;;;10.68;60.36
13869;BME280;7004;48.206;16.402;2023-05-09T01:26:43;100427.91;;;10.58;61.26
13869;BME280;7004;48.206;16.402;2023-05-09T01:29:32;100430.91;;;10.85;61.11
13869;BME280;7004;48.206;16.402;2023-05-09T01:32:11;100435.53;;;10.64;62.00
13869;BME280;7004;48.206;16.402;2023-05-09T01:34:43;100438.53;;;10.74;62.45
13869;BME280;7004;48.206;16.402;2023-05-09T01:37:13;100436.03;;;10.70;62.09
13869;BME280;7004;48.206;16.402;2023-05-09T01:39:45;100433.22;;;10.74;62.22
13869;BME280;7004;48.206;16.402;2023-05-09T01:42:12;100432.25;;;10.92;61.69
13869;BME280;7004;48.206;16.402;2023-05-09T01:44:42;100431.50;;;10.57;62.56
13869;BME280;7004;48.206;16.402;2023-05-09T01:47:14;100434.03;;;10.06;63.21
13869;BME280;7004;48.206;16.402;2023-05-09T01:49:47;100425.06;;;10.78;61.29
13869;BME280;7004;48.206;16.402;2023-05-09T01:52:16;100423.09;;;10.48;62.29
13869;BME280;7004;48.206;16.402;2023-05-09T01:54:45;100429.69;;;10.57;62.49
13869;BME280;7004;48.206;16.402;2023-05-09T01:57:13;100433.16;;;11.08;61.44
13869;BME280;7004;48.206;16.402;2023-05-09T01:59:42;100428.75;;;10.58;62.13
13869;BME280;7004;48.206;16.402;2023-05-09T02:02:10;100420.69;;;10.61;62.69
13869;BME280;7004;48.206;16.402;2023-05-09T02:04:37;100419.16;;;10.73;62.62
13869;BME280;7004;48.206;16.402;2023-05-09T02:07:05;100422.19;;;10.83;62.41
13869;BME280;7004;48.206;16.402;2023-05-09T02:09:32;100420.19;;;10.70;63.67
13869;BME280;7004;48.206;16.402;2023-05-09T02:11:59;100421.66;;;10.76;63.33
13869;BME280;7004;48.206;16.402;2023-05-09T02:14:25;100422.03;;;10.35;64.29
13869;BME280;7004;48.206;16.402;2023-05-09T02:16:51;100424.25;;;10.93;63.06
13869;BME280;7004;48.206;16.402;2023-05-09T02:19:18;100429.00;;;10.87;63.08
13869;BME280;7004;48.206;16.402;2023-05-09T02:21:44;100428.88;;;10.90;62.37
13869;BME280;7004;48.206;16.402;2023-05-09T02:24:11;100426.28;;;10.88;62.87
13869;BME280;7004;48.206;16.402;2023-05-09T02:26:37;100428.69;;;10.93;63.20
13869;BME280;7004;48.206;16.402;2023-05-09T02:29:06;100426.25;;;10.73;63.62
13869;BME280;7004;48.206;16.402;2023-05-09T02:31:34;100425.41;;;10.72;63.74
13869;BME280;7004;48.206;16.402;2023-05-09T02:34:02;100424.78;;;10.67;64.15
13869;BME280;7004;48.206;16.402;2023-05-09T02:36:31;100421.22;;;10.50;64.40
13869;BME280;7004;48.206;16.402;2023-05-09T02:38:57;100424.34;;;10.41;65.29
13869;BME280;7004;48.206;16.402;2023-05-09T02:41:25;100426.06;;;10.25;66.13
13869;BME280;7004;48.206;16.402;2023-05-09T02:43:54;100427.56;;;10.48;65.39
13869;BME280;7004;48.206;16.402;2023-05-09T02:46:21;100431.50;;;10.39;65.62
13869;BME280;7004;48.206;16.402;2023-05-09T02:48:47;100416.88;;;10.49;65.54
13869;BME280;7004;48.206;16.402;2023-05-09T02:51:14;100423.66;;;10.38;65.89
13869;BME280;7004;48.206;16.402;2023-05-09T02:53:40;100428.19;;;10.36;66.00
13869;BME280;7004;48.206;16.402;2023-05-09T02:56:07;100421.09;;;10.36;66.01
13869;BME280;7004;48.206;16.402;2023-05-09T02:58:34;100423.59;;;9.85;68.24
13869;BME280;7004;48.206;16.402;2023-05-09T03:01:00;100419.97;;;10.05;68.36
13869;BME280;7004;48.206;16.402;2023-05-09T03:03:26;100415.84;;;10.00;68.41
13869;BME280;7004;48.206;16.402;2023-05-09T03:05:52;100419.13;;;10.05;68.24
13869;BME280;7004;48.206;16.402;2023-05-09T03:08:18;100418.63;;;10.33;67.81
13869;BME280;7004;48.206;16.402;2023-05-09T03:10:44;100423.84;;;9.98;68.61
13869;BME280;7004;48.206;16.402;2023-05-09T03:13:12;100418.91;;;10.10;68.25
13869;BME280;7004;48.206;16.402;2023-05-09T03:15:39;100421.19;;;9.98;68.59
13869;BME280;7004;48.206;16.402;2023-05-09T03:18:05;100424.94;;;10.12;68.26
13869;BME280;7004;48.206;16.402;2023-05-09T03:20:31;100412.91;;;9.89;69.02
13869;BME280;7004;48.206;16.402;2023-05-09T03:22:57;100418.81;;;9.57;70.62
13869;BME280;7004;48.206;16.402;2023-05-09T03:25:23;100415.41;;;9.55;70.76
13869;BME280;7004;48.206;16.402;2023-05-09T03:27:51;100419.59;;;9.59;70.50
13869;BME280;7004;48.206;16.402;2023-05-09T03:30:17;100421.84;;;9.50;70.95
13869;BME280;7004;48.206;16.402;2023-05-09T03:32:44;100420.59;;;9.57;71.20
13869;BME280;7004;48.206;16.402;2023-05-09T03:35:10;100421.19;;;9.07;73.41
13869;BME280;7004;48.206;16.402;2023-05-09T03:37:36;100420.28;;;9.27;72.80
13869;BME280;7004;48.206;16.402;2023-05-09T03:40:02;100420.50;;;9.22;72.99
13869;BME280;7004;48.206;16.402;2023-05-09T03:42:29;100421.91;;;9.48;71.70
13869;BME280;7004;48.206;16.402;2023-05-09T03:44:55;100425.16;;;9.53;71.47
13869;BME280;7004;48.206;16.402;2023-05-09T03:47:21;100418.66;;;9.24;72.82
13869;BME280;7004;48.206;16.402;2023-05-09T03:49:47;100428.69;;;9.35;72.65
13869;BME280;7004;48.206;16.402;2023-05-09T03:52:13;100422.84;;;9.28;73.04
13869;BME280;7004;48.206;16.402;2023-05-09T03:54:40;100416.69;;;9.47;72.18
13869;BME280;7004;48.206;16.402;2023-05-09T03:57:06;100418.25;;;9.51;72.52
13869;BME280;7004;48.206;16.402;2023-05-09T03:59:32;100430.94;;;9.61;71.66
13869;BME280;7004;48.206;16.402;2023-05-09T04:01:58;100420.56;;;9.39;72.68
13869;BME280;7004;48.206;16.402;2023-05-09T04:04:24;100428.31;;;9.43;73.50
13869;BME280;7004;48.206;16.402;2023-05-09T04:06:50;100429.31;;;9.40;73.67
13869;BME280;7004;48.206;16.402;2023-05-09T04:09:16;100436.66;;;9.52;73.10
13869;BME280;7004;48.206;16.402;2023-05-09T04:11:43;100434.31;;;9.46;73.78
13869;BME280;7004;48.206;16.402;2023-05-09T04:14:09;100435.09;;;9.48;73.33
13869;BME280;7004;48.206;16.402;2023-05-09T04:16:35;100440.00;;;9.56;73.14
13869;BME280;7004;48.206;16.402;2023-05-09T04:19:01;100437.69;;;9.86;72.05
13869;BME280;7004;48.206;16.402;2023-05-09T04:21:27;100436.03;;;10.01;71.71
13869;BME280;7004;48.206;16.402;2023-05-09T04:23:53;100429.50;;;9.73;71.18
13869;BME280;7004;48.206;16.402;2023-05-09T04:26:19;100440.31;;;9.86;71.80
13869;BME280;7004;48.206;16.402;2023-05-09T04:28:46;100430.63;;;10.04;69.76
13869;BME280;7004;48.206;16.402;2023-05-09T04:31:12;100430.16;;;10.13;69.64
13869;BME280;7004;48.206;16.402;2023-05-09T04:33:39;100438.47;;;10.23;70.55
13869;BME280;7004;48.206;16.402;2023-05-09T04:36:05;100434.31;;;10.36;69.58
13869;BME280;7004;48.206;16.402;2023-05-09T04:38:32;100433.69;;;10.48;69.92
13869;BME280;7004;48.206;16.402;2023-05-09T04:40:58;100433.97;;;10.25;68.94
13869;BME280;7004;48.206;16.402;2023-05-09T04:43:26;100432.78;;;10.13;69.30
13869;BME280;7004;48.206;16.402;2023-05-09T04:45:53;100432.44;;;10.38;68.78
13869;BME280;7004;48.206;16.402;2023-05-09T04:48:19;100440.19;;;10.59;67.93
13869;BME280;7004;48.206;16.402;2023-05-09T04:50:45;100432.63;;;10.68;67.03
13869;BME280;7004;48.206;16.402;2023-05-09T04:53:13;100435.03;;;10.73;66.68
13869;BME280;7004;48.206;16.402;2023-05-09T04:55:39;100439.13;;;10.79;66.82
13869;BME280;7004;48.206;16.402;2023-05-09T04:58:05;100429.22;;;10.66;67.68
13869;BME280;7004;48.206;16.402;2023-05-09T05:00:31;100433.97;;;10.42;68.65
13869;BME280;7004;48.206;16.402;2023-05-09T05:02:58;100434.31;;;10.54;67.98
13869;BME280;7004;48.206;16.402;2023-05-09T05:05:24;100434.25;;;10.38;67.55
13869;BME280;7004;48.206;16.402;2023-05-09T05:07:50;100426.38;;;10.36;67.83
13869;BME280;7004;48.206;16.402;2023-05-09T05:10:18;100429.00;;;10.87;65.51
13869;BME280;7004;48.206;16.402;2023-05-09T05:12:44;100433.72;;;10.82;65.54
13869;BME280;7004;48.206;16.402;2023-05-09T05:15:11;100432.28;;;10.41;65.56
13869;BME280;7004;48.206;16.402;2023-05-09T05:17:37;100430.94;;;11.01;64.34
13869;BME280;7004;48.206;16.402;2023-05-09T05:20:04;100422.41;;;11.43;62.96
13869;BME280;7004;48.206;16.402;2023-05-09T05:22:33;100436.72;;;11.07;64.09
13869;BME280;7004;48.206;16.402;2023-05-09T05:25:00;100424.94;;;10.97;63.27
13869;BME280;7004;48.206;16.402;2023-05-09T05:27:28;100428.50;;;10.80;62.92
13869;BME280;7004;48.206;16.402;2023-05-09T05:29:54;100428.91;;;11.53;61.29
13869;BME280;7004;48.206;16.402;2023-05-09T05:32:20;100428.72;;;11.41;61.42
13869;BME280;7004;48.206;16.402;2023-05-09T05:34:46;100429.13;;;11.65;61.49
13869;BME280;7004;48.206;16.402;2023-05-09T05:37:13;100419.91;;;11.88;60.72
13869;BME280;7004;48.206;16.402;2023-05-09T05:39:39;100422.88;;;11.02;61.82
13869;BME280;7004;48.206;16.402;2023-05-09T05:42:05;100418.91;;;11.58;61.56
13869;BME280;7004;48.206;16.402;2023-05-09T05:44:31;100420.59;;;11.75;60.89
13869;BME280;7004;48.206;16.402;2023-05-09T05:46:57;100411.72;;;11.61;59.99
13869;BME280;7004;48.206;16.402;2023-05-09T05:49:23;100414.00;;;11.98;58.42
13869;BME280;7004;48.206;16.402;2023-05-09T05:51:50;100421.94;;;11.98;58.17
13869;BME280;7004;48.206;16.402;2023-05-09T05:54:16;100423.19;;;12.37;57.29
13869;BME280;7004;48.206;16.402;2023-05-09T05:56:42;100412.56;;;11.77;59.29
13869;BME280;7004;48.206;16.402;2023-05-09T05:59:08;100420.25;;;11.97;57.36
13869;BME280;7004;48.206;16.402;2023-05-09T06:01:34;100416.28;;;12.35;55.91
13869;BME280;7004;48.206;16.402;2023-05-09T06:04:00;100409.66;;;12.28;55.83
13869;BME280;7004;48.206;16.402;2023-05-09T06:06:26;100417.00;;;12.22;54.39
13869;BME280;7004;48.206;16.402;2023-05-09T06:08:53;100415.19;;;12.53;53.38
13869;BME280;7004;48.206;16.402;2023-05-09T06:11:19;100423.28;;;12.50;54.73
13869;BME280;7004;48.206;16.402;2023-05-09T06:13:45;100425.53;;;11.97;53.83
13869;BME280;7004;48.206;16.402;2023-05-09T06:16:12;100412.63;;;12.80;54.09
13869;BME280;7004;48.206;16.402;2023-05-09T06:18:38;100414.88;;;12.58;52.93
13869;BME280;7004;48.206;16.402;2023-05-09T06:21:08;100405.81;;;13.05;53.45
13869;BME280;7004;48.206;16.402;2023-05-09T06:23:34;100408.06;;;12.68;53.65
13869;BME280;7004;48.206;16.402;2023-05-09T06:26:02;100404.47;;;12.98;52.92
13869;BME280;7004;48.206;16.402;2023-05-09T06:28:29;100410.16;;;12.92;52.83
13869;BME280;7004;48.206;16.402;2023-05-09T06:30:55;100400.38;;;13.21;51.30
13869;BME280;7004;48.206;16.402;2023-05-09T06:33:22;100400.13;;;13.80;51.44
13869;BME280;7004;48.206;16.402;2023-05-09T06:35:48;100396.09;;;13.47;50.91
13869;BME280;7004;48.206;16.402;2023-05-09T06:38:14;100408.47;;;12.90;52.30
13869;BME280;7004;48.206;16.402;2023-05-09T06:40:40;100402.13;;;13.49;50.07
13869;BME280;7004;48.206;16.402;2023-05-09T06:43:07;100390.78;;;14.14;48.82
13869;BME280;7004;48.206;16.402;2023-05-09T06:45:33;100390.00;;;13.99;48.47
13869;BME280;7004;48.206;16.402;2023-05-09T06:47:59;100396.78;;;14.03;48.66
13869;BME280;7004;48.206;16.402;2023-05-09T06:50:25;100387.88;;;13.77;48.80
13869;BME280;7004;48.206;16.402;2023-05-09T06:52:51;100393.41;;;14.01;48.66
13869;BME280;7004;48.206;16.402;2023-05-09T06:55:17;100387.66;;;14.07;47.96
13869;BME280;7004;48.206;16.402;2023-05-09T06:57:44;100384.19;;;14.71;46.30
13869;BME280;7004;48.206;16.402;2023-05-09T07:00:11;100386.25;;;14.67;46.30
13869;BME280;7004;48.206;16.402;2023-05-09T07:02:37;100379.97;;;15.31;45.58
13869;BME280;7004;48.206;16.402;2023-05-09T07:05:08;100375.81;;;15.50;45.77
13869;BME280;7004;48.206;16.402;2023-05-09T07:07:35;100378.69;;;16.20;44.98
13869;BME280;7004;48.206;16.402;2023-05-09T07:10:01;100384.53;;;16.36;43.19
13869;BME280;7004;48.206;16.402;2023-05-09T07:12:32;100372.09;;;15.77;43.82
13869;BME280;7004;48.206;16.402;2023-05-09T07:14:59;100377.34;;;15.66;43.60
13869;BME280;7004;48.206;16.402;2023-05-09T07:17:25;100376.56;;;14.79;44.55
13869;BME280;7004;48.206;16.402;2023-05-09T07:19:51;100376.56;;;14.66;45.44
13869;BME280;7004;48.206;16.402;2023-05-09T07:22:17;100381.53;;;14.71;45.58
13869;BME280;7004;48.206;16.402;2023-05-09T07:24:43;100381.75;;;15.30;43.91
13869;BME280;7004;48.206;16.402;2023-05-09T07:27:11;100379.72;;;14.20;46.07
13869;BME280;7004;48.206;16.402;2023-05-09T07:29:37;100373.97;;;15.27;44.71
13869;BME280;7004;48.206;16.402;2023-05-09T07:32:03;100374.59;;;15.91;43.19
13869;BME280;7004;48.206;16.402;2023-05-09T07:34:30;100367.50;;;15.31;44.79
13869;BME280;7004;48.206;16.402;2023-05-09T07:36:56;100366.41;;;15.82;44.09
13869;BME280;7004;48.206;16.402;2023-05-09T07:39:23;100365.09;;;16.34;43.28
13869;BME280;7004;48.206;16.402;2023-05-09T07:41:49;100356.06;;;17.04;43.16
13869;BME280;7004;48.206;16.402;2023-05-09T07:44:15;100363.03;;;14.82;45.31
13869;BME280;7004;48.206;16.402;2023-05-09T07:46:41;100358.25;;;14.74;45.88
13869;BME280;7004;48.206;16.402;2023-05-09T07:49:07;100356.22;;;15.76;45.24
13869;BME280;7004;48.206;16.402;2023-05-09T07:51:34;100357.47;;;14.98;45.45
13869;BME280;7004;48.206;16.402;2023-05-09T07:54:00;100351.34;;;15.08;45.47
13869;BME280;7004;48.206;16.402;2023-05-09T07:56:26;100347.91;;;16.38;43.45
13869;BME280;7004;48.206;16.402;2023-05-09T07:58:52;100351.31;;;16.51;44.15
13869;BME280;7004;48.206;16.402;2023-05-09T08:01:18;100337.63;;;16.45;42.90
13869;BME280;7004;48.206;16.402;2023-05-09T08:03:44;100349.00;;;16.47;42.32
13869;BME280;7004;48.206;16.402;2023-05-09T08:06:10;100337.84;;;15.60;44.73
13869;BME280;7004;48.206;16.402;2023-05-09T08:08:37;100323.78;;;17.07;42.08
13869;BME280;7004;48.206;16.402;2023-05-09T08:11:04;100328.25;;;17.18;40.74
13869;BME280;7004;48.206;16.402;2023-05-09T08:13:30;100320.72;;;17.55;40.18
13869;BME280;7004;48.206;16.402;2023-05-09T08:15:56;100325.72;;;16.60;43.93
13869;BME280;7004;48.206;16.402;2023-05-09T08:18:22;100322.53;;;17.87;39.71
13869;BME280;7004;48.206;16.402;2023-05-09T08:20:49;100316.13;;;18.72;41.05
13869;BME280;7004;48.206;16.402;2023-05-09T08:23:15;100317.13;;;18.19;40.48
13869;BME280;7004;48.206;16.402;2023-05-09T08:25:42;100313.88;;;17.62;40.75
13869;BME280;7004;48.206;16.402;2023-05-09T08:28:08;100309.69;;;18.23;39.36
13869;BME280;7004;48.206;16.402;2023-05-09T08:30:34;100309.97;;;18.50;39.82
13869;BME280;7004;48.206;16.402;2023-05-09T08:33:00;100309.88;;;16.81;40.15
13869;BME280;7004;48.206;16.402;2023-05-09T08:35:26;100315.06;;;17.37;40.12
13869;BME280;7004;48.206;16.402;2023-05-09T08:37:52;100317.50;;;17.61;40.71
13869;BME280;7004;48.206;16.402;2023-05-09T08:40:18;100317.69;;;18.44;39.65
13869;BME280;7004;48.206;16.402;2023-05-09T08:42:44;100309.47;;;17.73;41.08
13869;BME280;7004;48.206;16.402;2023-05-09T08:45:14;100313.44;;;17.78;39.52
13869;BME280;7004;48.206;16.402;2023-05-09T08:47:41;100302.34;;;17.62;40.35
13869;BME280;7004;48.206;16.402;2023-05-09T08:50:11;100306.94;;;17.39;40.71
13869;BME280;7004;48.206;16.402;2023-05-09T08:52:40;100308.53;;;17.95;39.70
13869;BME280;7004;48.206;16.402;2023-05-09T08:55:06;100289.44;;;19.01;38.39
13869;BME280;7004;48.206;16.402;2023-05-09T08:57:33;100306.94;;;18.34;39.58
13869;BME280;7004;48.206;16.402;2023-05-09T09:00:03;100304.88;;;17.96;39.29
13869;BME280;7004;48.206;16.402;2023-05-09T09:02:36;100291.56;;;17.84;39.80
13869;BME280;7004;48.206;16.402;2023-05-09T09:05:05;100285.53;;;18.13;39.80
13869;BME280;7004;48.206;16.402;2023-05-09T09:07:36;100274.88;;;18.84;43.29
13869;BME280;7004;48.206;16.402;2023-05-09T09:10:03;100274.84;;;19.54;39.37
13869;BME280;7004;48.206;16.402;2023-05-09T09:12:30;100272.72;;;19.28;44.88
13869;BME280;7004;48.206;16.402;2023-05-09T09:15:04;100267.19;;;19.98;37.89
13869;BME280;7004;48.206;16.402;2023-05-09T09:17:36;100259.81;;;20.47;38.59
13869;BME280;7004;48.206;16.402;2023-05-09T09:20:10;100265.09;;;19.33;39.93
13869;BME280;7004;48.206;16.402;2023-05-09T09:22:42;100263.63;;;18.60;37.41
13869;BME280;7004;48.206;16.402;2023-05-09T09:25:09;100278.75;;;19.98;36.53
13869;BME280;7004;48.206;16.402;2023-05-09T09:27:35;100269.47;;;18.74;38.71
13869;BME280;7004;48.206;16.402;2023-05-09T09:30:11;100267.47;;;19.17;37.04
13869;BME280;7004;48.206;16.402;2023-05-09T09:32:37;100276.25;;;19.38;37.29
13869;BME280;7004;48.206;16.402;2023-05-09T09:35:10;100253.66;;;20.92;37.32
13869;BME280;7004;48.206;16.402;2023-05-09T09:37:39;100269.59;;;19.91;37.25
13869;BME280;7004;48.206;16.402;2023-05-09T09:40:10;100269.16;;;19.96;37.65
13869;BME280;7004;48.206;16.402;2023-05-09T09:42:45;100257.94;;;20.10;38.25
13869;BME280;7004;48.206;16.402;2023-05-09T09:45:14;100263.97;;;19.36;37.49
13869;BME280;7004;48.206;16.402;2023-05-09T09:47:47;100255.88;;;18.97;39.50
13869;BME280;7004;48.206;16.402;2023-05-09T09:50:18;100258.03;;;19.23;38.26
13869;BME280;7004;48.206;16.402;2023-05-09T09:52:53;100252.44;;;20.21;35.97
13869;BME280;7004;48.206;16.402;2023-05-09T09:55:22;100251.81;;;19.32;37.88
13869;BME280;7004;48.206;16.402;2023-05-09T09:57:50;100251.38;;;20.42;36.12
13869;BME280;7004;48.206;16.402;2023-05-09T10:00:23;100247.16;;;19.63;38.24
13869;BME280;7004;48.206;16.402;2023-05-09T10:02:57;100241.59;;;20.03;38.48
13869;BME280;7004;48.206;16.402;2023-05-09T10:05:29;100234.34;;;19.28;39.24
13869;BME280;7004;48.206;16.402;2023-05-09T10:08:03;100227.56;;;20.84;36.10
13869;BME280;7004;48.206;16.402;2023-05-09T10:10:32;100226.72;;;21.37;36.18
13869;BME280;7004;48.206;16.402;2023-05-09T10:13:03;100249.97;;;19.91;36.34
13869;BME280;7004;48.206;16.402;2023-05-09T10:15:30;100239.34;;;19.99;36.54
13869;BME280;7004;48.206;16.402;2023-05-09T10:17:59;100229.56;;;20.07;36.77
13869;BME280;7004;48.206;16.402;2023-05-09T10:20:27;100225.72;;;19.73;37.15
13869;BME280;7004;48.206;16.402;2023-05-09T10:22:56;100212.53;;;21.09;36.05
13869;BME280;7004;48.206;16.402;2023-05-09T10:28:12;100214.34;;;20.36;36.75
13869;BME280;7004;48.206;16.402;2023-05-09T10:33:45;100212.56;;;20.26;36.88
13869;BME280;7004;48.206;16.402;2023-05-09T10:36:16;100220.50;;;19.32;38.65
13869;BME280;7004;48.206;16.402;2023-05-09T10:38:43;100210.13;;;20.70;36.53
13869;BME280;7004;48.206;16.402;2023-05-09T10:41:10;100203.53;;;21.54;36.71
13869;BME280;7004;48.206;16.402;2023-05-09T10:43:37;100194.44;;;21.55;36.28
13869;BME280;7004;48.206;16.402;2023-05-09T10:46:04;100196.28;;;21.37;35.30
13869;BME280;7004;48.206;16.402;2023-05-09T10:48:32;100197.03;;;19.93;37.01
13869;BME280;7004;48.206;16.402;2023-05-09T10:51:02;100187.59;;;20.44;36.15
13869;BME280;7004;48.206;16.402;2023-05-09T10:56:06;100167.59;;;22.58;34.90
13869;BME280;7004;48.206;16.402;2023-05-09T10:58:33;100177.47;;;21.37;35.90
13869;BME280;7004;48.206;16.402;2023-05-09T11:01:03;100188.03;;;21.12;36.08
13869;BME280;7004;48.206;16.402;2023-05-09T11:03:56;100181.81;;;19.74;37.45
13869;BME280;7004;48.206;16.402;2023-05-09T11:06:43;100179.47;;;20.63;36.85
13869;BME280;7004;48.206;16.402;2023-05-09T11:09:36;100183.69;;;20.11;37.14
13869;BME280;7004;48.206;16.402;2023-05-09T11:14:31;100177.63;;;20.08;37.41
13869;BME280;7004;48.206;16.402;2023-05-09T11:22:19;100147.25;;;20.99;36.32
13869;BME280;7004;48.206;16.402;2023-05-09T11:25:12;100137.09;;;21.29;36.49
13869;BME280;7004;48.206;16.402;2023-05-09T11:27:44;100142.28;;;20.86;37.26
13869;BME280;7004;48.206;16.402;2023-05-09T11:30:20;100148.56;;;21.13;36.88
13869;BME280;7004;48.206;16.402;2023-05-09T11:32:52;100144.75;;;20.52;36.73
13869;BME280;7004;48.206;16.402;2023-05-09T11:35:22;100148.53;;;19.47;38.59
13869;BME280;7004;48.206;16.402;2023-05-09T11:37:59;100146.09;;;20.66;36.65
13869;BME280;7004;48.206;16.402;2023-05-09T11:40:30;100135.06;;;20.14;36.38
13869;BME280;7004;48.206;16.402;2023-05-09T11:42:58;100134.97;;;20.05;36.58
13869;BME280;7004;48.206;16.402;2023-05-09T11:45:28;100134.78;;;20.62;36.31
13869;BME280;7004;48.206;16.402;2023-05-09T11:47:54;100135.94;;;20.04;37.01
13869;BME280;7004;48.206;16.402;2023-05-09T11:50:22;100134.41;;;20.29;36.19
13869;BME280;7004;48.206;16.402;2023-05-09T11:52:49;100136.72;;;19.30;37.80
13869;BME280;7004;48.206;16.402;2023-05-09T11:55:20;100139.38;;;18.72;38.89
13869;BME280;7004;48.206;16.402;2023-05-09T11:57:52;100126.44;;;21.01;35.95
13869;BME280;7004;48.206;16.402;2023-05-09T12:00:24;100123.09;;;20.81;35.27
13869;BME280;7004;48.206;16.402;2023-05-09T12:02:51;100110.72;;;20.25;36.20
13869;BME280;7004;48.206;16.402;2023-05-09T12:05:20;100121.84;;;20.30;36.18
13869;BME280;7004;48.206;16.402;2023-05-09T12:07:47;100122.84;;;20.01;37.00
13869;BME280;7004;48.206;16.402;2023-05-09T12:10:20;100113.78;;;19.55;37.08
13869;BME280;7004;48.206;16.402;2023-05-09T12:12:49;100107.22;;;20.42;36.25
13869;BME280;7004;48.206;16.402;2023-05-09T12:15:16;100099.53;;;20.02;36.74
13869;BME280;7004;48.206;16.402;2023-05-09T12:17:44;100100.78;;;19.80;37.47
13869;BME280;7004;48.206;16.402;2023-05-09T12:20:11;100089.72;;;20.38;36.47
13869;BME280;7004;48.206;16.402;2023-05-09T12:22:41;100082.78;;;21.25;35.27
13869;BME280;7004;48.206;16.402;2023-05-09T12:25:09;100100.97;;;20.24;36.22
13869;BME280;7004;48.206;16.402;2023-05-09T12:27:38;100093.00;;;20.32;35.68
13869;BME280;7004;48.206;16.402;2023-05-09T12:30:06;100087.44;;;20.97;34.98
13869;BME280;7004;48.206;16.402;2023-05-09T12:32:36;100081.47;;;20.67;35.35
13869;BME280;7004;48.206;16.402;2023-05-09T12:35:05;100088.69;;;21.29;35.20
13869;BME280;7004;48.206;16.402;2023-05-09T12:37:32;100084.91;;;21.40;34.59
13869;BME280;7004;48.206;16.402;2023-05-09T12:40:11;100057.44;;;20.84;35.62
13869;BME280;7004;48.206;16.402;2023-05-09T12:42:43;100068.97;;;20.94;34.64
13869;BME280;7004;48.206;16.402;2023-05-09T12:45:11;100063.13;;;20.45;35.69
13869;BME280;7004;48.206;16.402;2023-05-09T12:47:37;100053.00;;;21.19;35.36
13869;BME280;7004;48.206;16.402;2023-05-09T12:50:05;100063.19;;;20.35;35.85
13869;BME280;7004;48.206;16.402;2023-05-09T12:52:38;100049.63;;;20.72;34.81
13869;BME280;7004;48.206;16.402;2023-05-09T12:55:11;100046.69;;;20.84;34.69
13869;BME280;7004;48.206;16.402;2023-05-09T12:57:38;100041.84;;;20.51;35.38
13869;BME280;7004;48.206;16.402;2023-05-09T13:00:08;100040.06;;;19.79;36.42
13869;BME280;7004;48.206;16.402;2023-05-09T13:02:39;100023.66;;;20.99;34.08
13869;BME280;7004;48.206;16.402;2023-05-09T13:05:12;100025.06;;;20.67;35.21
13869;BME280;7004;48.206;16.402;2023-05-09T13:07:48;100034.16;;;19.38;37.25
13869;BME280;7004;48.206;16.402;2023-05-09T13:10:23;100023.91;;;20.16;36.28
13869;BME280;7004;48.206;16.402;2023-05-09T13:12:51;100010.84;;;20.75;35.26
13869;BME280;7004;48.206;16.402;2023-05-09T13:15:21;100023.28;;;20.22;36.33
13869;BME280;7004;48.206;16.402;2023-05-09T13:17:50;100018.63;;;19.97;36.30
13869;BME280;7004;48.206;16.402;2023-05-09T13:20:16;100011.91;;;19.93;36.29
13869;BME280;7004;48.206;16.402;2023-05-09T13:22:43;100001.66;;;20.06;36.31
13869;BME280;7004;48.206;16.402;2023-05-09T13:25:10;100008.78;;;20.87;35.33